D/T METAR WX W/DIR W/SPE G/SPE TEMP DEWP
19/03/19 02:50 EGPK 190250Z 22003KT 9999 SCT010 BKN025 08/08 Q1021 SW (220°) 3.5mph 8°C 8°C
19/03/19 01:50 EGPK 190150Z 20003KT 9999 SCT010 BKN025 07/07 Q1022 SSW (200°) 3.5mph 7°C 7°C
19/03/19 00:50 EGPK 190050Z 15002KT 9999 SCT010 BKN030 06/06 Q1021 SSE (150°) 2.3mph 6°C 6°C
18/03/19 23:50 EGPK 182350Z 13002KT 9999 SCT010 SCT020 06/06 Q1022 SE (130°) 2.3mph 6°C 6°C
18/03/19 23:20 EGPK 182320Z 12003KT 9999 MIFG SCT010 SCT020 04/04 Q1021 MIFG ESE (120°) 3.5mph 4°C 4°C
18/03/19 22:50 EGPK 182250Z 12002KT 9999 MIFG FEW020 SCT030 04/04 Q1021 MIFG ESE (120°) 2.3mph 4°C 4°C
18/03/19 22:20 EGPK 182220Z 13003KT 9999 FEW025 05/05 Q1021 SE (130°) 3.5mph 5°C 5°C
18/03/19 21:50 EGPK 182150Z 00000KT 9999 FEW020 SCT030 06/05 Q1021 N (0°) 6°C 5°C
18/03/19 21:20 EGPK 182120Z 17002KT 9999 FEW020 SCT030 07/07 Q1021 S (170°) 2.3mph 7°C 7°C
18/03/19 20:50 EGPK 182050Z 00000KT 9999 FEW020 BKN030 07/07 Q1021 N (0°) 7°C 7°C
18/03/19 20:20 EGPK 182020Z 00000KT 9999 FEW020 BKN030 07/07 Q1021 N (0°) 7°C 7°C
18/03/19 19:50 EGPK 181950Z 00000KT 9999 FEW012 BKN030 08/07 Q1020 N (0°) 8°C 7°C
18/03/19 19:20 EGPK 181920Z 00000KT 9999 FEW012 BKN030 08/07 Q1020 N (0°) 8°C 7°C
18/03/19 18:50 EGPK 181850Z 25002KT 9999 FEW012 BKN030 08/08 Q1020 WSW (250°) 2.3mph 8°C 8°C
18/03/19 18:20 EGPK 181820Z 25004KT 9999 FEW010 SCT028 08/08 Q1019 WSW (250°) 4.6mph 8°C 8°C
18/03/19 17:50 EGPK 181750Z 24003KT 9999 FEW010 SCT028 08/08 Q1019 WSW (240°) 3.5mph 8°C 8°C
18/03/19 17:20 EGPK 181720Z 24005KT 9999 FEW010 SCT028 09/08 Q1018 WSW (240°) 5.8mph 9°C 8°C
18/03/19 16:50 EGPK 181650Z 24007KT 9999 FEW010 SCT028 10/08 Q1018 WSW (240°) 8.1mph 10°C 8°C
18/03/19 16:20 EGPK 181620Z 21004KT 160V250 9999 FEW010 SCT028 10/08 Q1018 SSW (210°) 4.6mph 10°C 8°C
18/03/19 15:50 EGPK 181550Z 18004KT 9999 SCT010 BKN028 08/07 Q1018 S (180°) 4.6mph 8°C 7°C
18/03/19 15:20 EGPK 181520Z 21004KT 9999 SCT010 BKN028 08/07 Q1017 SSW (210°) 4.6mph 8°C 7°C
18/03/19 14:50 EGPK 181450Z 20003KT 9999 SCT012 BKN025 08/07 Q1017 SSW (200°) 3.5mph 8°C 7°C
18/03/19 14:20 EGPK 181420Z 21004KT 9999 -RA SCT009 BKN020 08/07 Q1017 -RA SSW (210°) 4.6mph 8°C 7°C
18/03/19 13:50 EGPK 181350Z 20004KT 9999 -RA SCT009 BKN020 08/07 Q1017 -RA SSW (200°) 4.6mph 8°C 7°C
18/03/19 13:20 EGPK 181320Z 19005KT 9999 -RA SCT009 BKN020 07/06 Q1017 -RA S (190°) 5.8mph 7°C 6°C
18/03/19 12:50 EGPK 181250Z 20004KT 7000 -RA SCT010 BKN018 07/06 Q1017 -RA SSW (200°) 4.6mph 7°C 6°C
18/03/19 12:20 EGPK 181220Z 18006KT 9999 -RA SCT012 BKN021 07/06 Q1017 -RA S (180°) 6.9mph 7°C 6°C
18/03/19 11:50 EGPK 181150Z 19005KT 9999 -RA SCT012 BKN021 07/06 Q1017 -RA S (190°) 5.8mph 7°C 6°C
18/03/19 11:20 EGPK 181120Z 19006KT 9999 -RA SCT009 BKN021 07/06 Q1017 -RA S (190°) 6.9mph 7°C 6°C
18/03/19 10:50 EGPK 181050Z 19006KT 9999 -RA FEW011 BKN025 07/06 Q1017 -RA S (190°) 6.9mph 7°C 6°C
18/03/19 10:20 EGPK 181020Z 20005KT 9999 -RA SCT010 BKN021 07/06 Q1016 -RA SSW (200°) 5.8mph 7°C 6°C
18/03/19 09:50 EGPK 180950Z 21005KT 9999 -RA SCT010 BKN021 07/06 Q1016 -RA SSW (210°) 5.8mph 7°C 6°C
18/03/19 09:20 EGPK 180920Z 19004KT 170V240 9999 -RA SCT012 BKN028 06/05 Q1016 -RA S (190°) 4.6mph 6°C 5°C
18/03/19 08:50 EGPK 180850Z 19005KT 9999 -RA SCT014 BKN032 06/05 Q1016 -RA S (190°) 5.8mph 6°C 5°C
18/03/19 08:20 EGPK 180820Z 20002KT 9999 -RA SCT014 BKN032 06/05 Q1016 -RA SSW (200°) 2.3mph 6°C 5°C
18/03/19 07:50 EGPK 180750Z 24002KT 9999 -RA FEW015 BKN029 06/05 Q1016 -RA WSW (240°) 2.3mph 6°C 5°C
18/03/19 06:50 EGPK 180650Z 25006KT 9999 -RA FEW018 BKN025 05/04 Q1016 -RA WSW (250°) 6.9mph 5°C 4°C
18/03/19 06:20 EGPK 180620Z 25010KT 9999 -RA FEW018 BKN034 06/04 Q1015 -RA WSW (250°) 11.5mph 6°C 4°C
18/03/19 05:50 EGPK 180550Z 26011KT 9999 BKN045 06/04 Q1015 W (260°) 12.7mph 6°C 4°C
18/03/19 04:50 EGPK 180450Z VRB03KT 9999 SCT030 04/04 Q1015 N (0°) 3.5mph 4°C 4°C
18/03/19 03:50 EGPK 180350Z 00000KT 9999 SCT030 05/04 Q1015 N (0°) 5°C 4°C
18/03/19 02:50 EGPK 180250Z 24004KT 9999 SCT030 06/04 Q1015 WSW (240°) 4.6mph 6°C 4°C
18/03/19 01:50 EGPK 180150Z 23003KT 9999 SCT038 06/04 Q1014 SW (230°) 3.5mph 6°C 4°C
18/03/19 00:50 EGPK 180050Z 30008KT 9999 SCT035 06/03 Q1014 WNW (300°) 9.2mph 6°C 3°C
17/03/19 23:50 EGPK 172350Z 30007KT 9999 FEW032 05/03 Q1014 WNW (300°) 8.1mph 5°C 3°C
17/03/19 23:20 EGPK 172320Z 30009KT 9999 FEW030 06/03 Q1014 WNW (300°) 10.4mph 6°C 3°C
17/03/19 22:50 EGPK 172250Z 30008KT 9999 FEW030 06/02 Q1013 WNW (300°) 9.2mph 6°C 2°C
17/03/19 22:20 EGPK 172220Z 30006KT 9999 FEW030 05/02 Q1013 WNW (300°) 6.9mph 5°C 2°C
17/03/19 21:50 EGPK 172150Z 29006KT 9999 FEW035 05/02 Q1013 WNW (290°) 6.9mph 5°C 2°C
17/03/19 21:20 EGPK 172120Z 31006KT 9999 FEW035 05/02 Q1012 NW (310°) 6.9mph 5°C 2°C
17/03/19 20:50 EGPK 172050Z 30009KT 9999 FEW035 05/01 Q1012 WNW (300°) 10.4mph 5°C 1°C
17/03/19 20:20 EGPK 172020Z 28006KT 9999 SCT040 05/01 Q1012 W (280°) 6.9mph 5°C 1°C
17/03/19 19:50 EGPK 171950Z 30008KT 9999 SCT040 06/01 Q1011 WNW (300°) 9.2mph 6°C 1°C
17/03/19 19:20 EGPK 171920Z 31009KT 9999 SCT030 06/02 Q1010 NW (310°) 10.4mph 6°C 2°C
17/03/19 18:50 EGPK 171850Z 30009KT 9999 FEW030 07/03 Q1010 WNW (300°) 10.4mph 7°C 3°C
17/03/19 18:20 EGPK 171820Z 31013KT 9999 FEW020CB 07/02 Q1009 NW (310°) 15.0mph 7°C 2°C
17/03/19 17:50 EGPK 171750Z 31013KT 9999 FEW020CB 07/03 Q1008 NW (310°) 15.0mph 7°C 3°C
17/03/19 16:50 EGPK 171650Z 30016KT 9999 FEW020 08/04 Q1006 WNW (300°) 18.4mph 8°C 4°C
17/03/19 16:20 EGPK 171620Z 30016KT 9999 FEW020 09/04 Q1006 WNW (300°) 18.4mph 9°C 4°C
17/03/19 15:50 EGPK 171550Z 29019KT 9999 FEW016CB SCT033 08/04 Q1005 WNW (290°) 21.9mph 8°C 4°C
17/03/19 15:20 EGPK 171520Z 31015KT 9999 FEW016CB SCT033 10/04 Q1004 NW (310°) 17.3mph 10°C 4°C
17/03/19 14:50 EGPK 171450Z 31015KT 9999 FEW033 10/04 Q1003 NW (310°) 17.3mph 10°C 4°C
17/03/19 14:20 EGPK 171420Z 29017KT 9999 FEW014 SCT033 09/05 Q1003 WNW (290°) 19.6mph 9°C 5°C
17/03/19 13:50 EGPK 171350Z 29013KT 9999 FEW014CB SCT021 09/05 Q1002 WNW (290°) 15.0mph 9°C 5°C
17/03/19 13:20 EGPK 171320Z 29007KT 9999 FEW015CB SCT022 08/05 Q1002 WNW (290°) 8.1mph 8°C 5°C
17/03/19 12:50 EGPK 171250Z 24012KT 9999 FEW015CB SCT020 08/05 Q1001 WSW (240°) 13.8mph 8°C 5°C
17/03/19 12:20 EGPK 171220Z 26014KT 9999 -SHRA FEW015CB SCT020 08/06 Q1000 -SHRA W (260°) 16.1mph 8°C 6°C
17/03/19 11:50 EGPK 171150Z 27014KT 9999 FEW015CB SCT020 07/06 Q1000 W (270°) 16.1mph 7°C 6°C
17/03/19 11:20 EGPK 171120Z 31003KT 9999 VCSH FEW015CB SCT020 04/03 Q1000 VCSH NW (310°) 3.5mph 4°C 3°C
17/03/19 10:50 EGPK 171050Z 25014KT 8000 -SHRA FEW013CB SCT020 BKN035 06/04 Q0999 -SHRA WSW (250°) 16.1mph 6°C 4°C
17/03/19 10:20 EGPK 171020Z 25013KT 9999 FEW016 SCT022 07/04 Q0999 WSW (250°) 15.0mph 7°C 4°C
17/03/19 09:50 EGPK 170950Z 24012KT 9999 FEW016 SCT022 06/04 Q0998 WSW (240°) 13.8mph 6°C 4°C
17/03/19 09:20 EGPK 170920Z 24013KT 9999 FEW014CB SCT020 06/03 Q0998 WSW (240°) 15.0mph 6°C 3°C
17/03/19 08:50 EGPK 170850Z 26012KT 9999 FEW014CB SCT020 06/01 Q0997 W (260°) 13.8mph 6°C 1°C
17/03/19 08:20 EGPK 170820Z 26013KT 9999 FEW015CB SCT018 05/01 Q0997 W (260°) 15.0mph 5°C 1°C
17/03/19 07:50 EGPK 170750Z 26013KT 9999 FEW015CB SCT018 05/02 Q0997 W (260°) 15.0mph 5°C 2°C
17/03/19 07:20 EGPK 170720Z 25012KT 9999 FEW015CB FEW018 04/02 Q0996 WSW (250°) 13.8mph 4°C 2°C
17/03/19 06:50 EGPK 170650Z 26011KT 9999 FEW015CB FEW025 04/01 Q0996 W (260°) 12.7mph 4°C 1°C
17/03/19 06:20 EGPK 170620Z 25009KT 9999 FEW015CB FEW025 04/01 Q0995 WSW (250°) 10.4mph 4°C 1°C
17/03/19 05:50 EGPK 170550Z 24007KT 9999 FEW015CB SCT035 03/01 Q0995 WSW (240°) 8.1mph 3°C 1°C
17/03/19 04:50 EGPK 170450Z 25011KT 9999 SCT048 03/01 Q0995 WSW (250°) 12.7mph 3°C 1°C
17/03/19 03:50 EGPK 170350Z 29013KT 9999 NSC 04/02 Q0994 WNW (290°) 15.0mph 4°C 2°C
17/03/19 02:50 EGPK 170250Z 27012KT 9999 FEW008 SCT035 04/02 Q0994 W (270°) 13.8mph 4°C 2°C
17/03/19 01:50 EGPK 170150Z 28005KT 9999 FEW016 BKN032 02/02 Q0993 W (280°) 5.8mph 2°C 2°C
17/03/19 00:50 EGPK 170050Z 27010KT 9999 SCT014 BKN020 04/02 Q0993 W (270°) 11.5mph 4°C 2°C
16/03/19 23:50 EGPK 162350Z 28012KT 250V320 9999 SCT020 BKN035 05/02 Q0992 W (280°) 13.8mph 5°C 2°C
16/03/19 23:20 EGPK 162320Z 28014KT 9999 SCT020 BKN035 05/01 Q0992 W (280°) 16.1mph 5°C 1°C
16/03/19 22:50 EGPK 162250Z 29014KT 9999 SCT023 05/02 Q0992 WNW (290°) 16.1mph 5°C 2°C
16/03/19 22:20 EGPK 162220Z 29011KT 9999 SCT023 05/02 Q0991 WNW (290°) 12.7mph 5°C 2°C
16/03/19 21:50 EGPK 162150Z 30011KT 9999 FEW015 SCT025 05/02 Q0991 WNW (300°) 12.7mph 5°C 2°C
16/03/19 21:20 EGPK 162120Z 30011KT 9999 FEW015 SCT025 04/02 Q0990 WNW (300°) 12.7mph 4°C 2°C
16/03/19 20:20 EGPK 162020Z 29017KT 9999 BKN025 05/02 Q0989 WNW (290°) 19.6mph 5°C 2°C
16/03/19 19:50 EGPK 161950Z 30015KT 9999 BKN016 05/02 Q0989 WNW (300°) 17.3mph 5°C 2°C
16/03/19 19:20 EGPK 161920Z 32004KT 9999 -RA BKN016 04/03 Q0989 -RA NW (320°) 4.6mph 4°C 3°C
16/03/19 18:50 EGPK 161850Z 32005KT 9999 BKN016 04/03 Q0988 NW (320°) 5.8mph 4°C 3°C
16/03/19 18:20 EGPK 161820Z 30011KT 9999 BKN016 04/02 Q0988 WNW (300°) 12.7mph 4°C 2°C
16/03/19 17:50 EGPK 161750Z 31015KT 9999 FEW013 BKN015 04/02 Q0987 NW (310°) 17.3mph 4°C 2°C
16/03/19 17:20 EGPK 161720Z 31016KT 9999 FEW013 BKN015 04/03 Q0986 NW (310°) 18.4mph 4°C 3°C
16/03/19 16:50 EGPK 161650Z 30018KT 9999 -RA BKN015 05/03 Q0985 -RA WNW (300°) 20.7mph 5°C 3°C
16/03/19 16:20 EGPK 161620Z 31010KT 9999 BKN016 04/03 Q0985 NW (310°) 11.5mph 4°C 3°C
16/03/19 15:50 EGPK 161550Z 32006KT 9999 BKN013 03/03 Q0984 NW (320°) 6.9mph 3°C 3°C
16/03/19 15:20 EGPK 161520Z 32005KT 9999 BKN013 03/03 Q0983 NW (320°) 5.8mph 3°C 3°C
16/03/19 14:50 EGPK 161450Z 33006KT 3000 -RADZ BKN012 03/03 Q0983 -RA -DZ NNW (330°) 6.9mph 3°C 3°C
16/03/19 14:20 EGPK 161420Z 32008KT 3000 -RADZ BKN012 04/03 Q0982 -RA -DZ NW (320°) 9.2mph 4°C 3°C
16/03/19 13:50 EGPK 161350Z 00000KT 9999 FEW008 BKN018 04/04 Q0981 N (0°) 4°C 4°C
16/03/19 13:20 EGPK 161320Z 02007KT 9999 -RA FEW008 BKN020 04/04 Q0981 -RA NNE (20°) 8.1mph 4°C 4°C
16/03/19 12:50 EGPK 161250Z 36005KT 330V040 4000 -RA BKN008 04/04 Q0982 -RA N (360°) 5.8mph 4°C 4°C
16/03/19 12:20 EGPK 161220Z 01007KT 4000 -RA BKN008 04/04 Q0981 -RA N (10°) 8.1mph 4°C 4°C
16/03/19 11:50 EGPK 161150Z 02004KT 350V060 4000 -RA BKN008 05/05 Q0982 -RA NNE (20°) 4.6mph 5°C 5°C
16/03/19 11:20 EGPK 161120Z 02005KT 4000 -RA BKN008 05/04 Q0982 -RA NNE (20°) 5.8mph 5°C 4°C
16/03/19 10:50 EGPK 161050Z 02006KT 5000 -RA BKN010 04/04 Q0983 -RA NNE (20°) 6.9mph 4°C 4°C
16/03/19 10:20 EGPK 161020Z 03004KT 5000 -RA BKN010 04/04 Q0984 -RA NNE (30°) 4.6mph 4°C 4°C
16/03/19 09:50 EGPK 160950Z 06004KT 5000 -RA BKN013 04/04 Q0985 -RA ENE (60°) 4.6mph 4°C 4°C
16/03/19 09:20 EGPK 160920Z 06006KT 6000 -RA BKN013 03/03 Q0986 -RA ENE (60°) 6.9mph 3°C 3°C
16/03/19 08:50 EGPK 160850Z 07005KT 7000 -RA SCT010 BKN016 03/03 Q0987 -RA ENE (70°) 5.8mph 3°C 3°C
16/03/19 08:20 EGPK 160820Z 07003KT 7000 -RA SCT010 BKN016 03/02 Q0988 -RA ENE (70°) 3.5mph 3°C 2°C
16/03/19 07:50 EGPK 160750Z 07005KT 7000 -RA SCT010 BKN016 02/02 Q0989 -RA ENE (70°) 5.8mph 2°C 2°C
16/03/19 07:20 EGPK 160720Z 06006KT 7000 -RASN SCT012 BKN018 02/02 Q0990 -RA -SN ENE (60°) 6.9mph 2°C 2°C
16/03/19 06:50 EGPK 160650Z 07004KT 9000 -RASN SCT018 BKN035 02/01 Q0991 -RA -SN ENE (70°) 4.6mph 2°C 1°C
16/03/19 06:20 EGPK 160620Z 08002KT 9000 -RA SCT018 BKN035 02/02 Q0992 -RA E (80°) 2.3mph 2°C 2°C
16/03/19 05:50 EGPK 160550Z 09003KT 9000 -RA FEW012 BKN025 02/02 Q0993 -RA E (90°) 3.5mph 2°C 2°C
16/03/19 04:50 EGPK 160450Z 00000KT 9000 -RA FEW012 SCT024 BKN035 03/02 Q0995 -RA N (0°) 3°C 2°C
16/03/19 03:50 EGPK 160350Z 13002KT 9999 -RA SCT012 BKN025 03/03 Q0997 -RA SE (130°) 2.3mph 3°C 3°C
16/03/19 02:50 EGPK 160250Z 16004KT 9999 BKN022 04/03 Q0998 SSE (160°) 4.6mph 4°C 3°C
16/03/19 01:50 EGPK 160150Z 22006KT 9999 BKN035 05/03 Q1000 SW (220°) 6.9mph 5°C 3°C
16/03/19 00:50 EGPK 160050Z 23010KT 9999 SCT042 06/03 Q1001 SW (230°) 11.5mph 6°C 3°C
15/03/19 23:50 EGPK 152350Z 23009KT 9999 SCT046 06/03 Q1002 SW (230°) 10.4mph 6°C 3°C
15/03/19 23:20 EGPK 152320Z 25011KT 9999 SCT046 06/03 Q1003 WSW (250°) 12.7mph 6°C 3°C
15/03/19 22:50 EGPK 152250Z 24011KT 9999 FEW020 SCT045 06/03 Q1003 WSW (240°) 12.7mph 6°C 3°C
15/03/19 21:50 EGPK 152150Z 25011KT 9999 FEW012 SCT035 06/02 Q1003 WSW (250°) 12.7mph 6°C 2°C
15/03/19 21:20 EGPK 152120Z 26015KT 9999 -SHRA FEW012 SCT035 05/03 Q1003 -SHRA W (260°) 17.3mph 5°C 3°C
15/03/19 20:50 EGPK 152050Z 24012KT 9999 FEW016 SCT028 06/03 Q1003 WSW (240°) 13.8mph 6°C 3°C
15/03/19 20:20 EGPK 152020Z 25011KT 9999 FEW016 SCT028 06/01 Q1004 WSW (250°) 12.7mph 6°C 1°C
15/03/19 19:50 EGPK 151950Z 25011KT 9999 FEW016 SCT028 06/01 Q1004 WSW (250°) 12.7mph 6°C 1°C
15/03/19 19:20 EGPK 151920Z 26013KT 9999 VCSH FEW016 SCT028 06/01 Q1004 VCSH W (260°) 15.0mph 6°C 1°C
15/03/19 18:50 EGPK 151850Z 28012KT 9999 VCSH SCT016CB 06/02 Q1003 VCSH W (280°) 13.8mph 6°C 2°C
15/03/19 18:20 EGPK 151820Z 27012KT 9999 -SHRA SCT016CB 06/02 Q1003 -SHRA W (270°) 13.8mph 6°C 2°C
15/03/19 17:20 EGPK 151720Z 27016KT 9999 FEW014 SCT018 07/02 Q1003 W (270°) 18.4mph 7°C 2°C
15/03/19 16:50 EGPK 151650Z 27020KT 9999 FEW013CB SCT028 07/01 Q1002 W (270°) 23.0mph 7°C 1°C
15/03/19 16:20 EGPK 151620Z 27024KT 9999 FEW013CB SCT028 07/01 Q1002 W (270°) 27.6mph 7°C 1°C
15/03/19 15:50 EGPK 151550Z 27022KT 9999 FEW015CB SCT030 07/02 Q1002 W (270°) 25.3mph 7°C 2°C
15/03/19 15:20 EGPK 151520Z 29019KT 9999 FEW015CB SCT030 07/03 Q1001 WNW (290°) 21.9mph 7°C 3°C
15/03/19 14:50 EGPK 151450Z 28015KT 9999 FEW015CB SCT030 05/03 Q1001 W (280°) 17.3mph 5°C 3°C
15/03/19 14:20 EGPK 151420Z 27022KT 9999 VCSH FEW017CB SCT030 08/01 Q1001 VCSH W (270°) 25.3mph 8°C 1°C